Time;durP1;ratioP1;P1;durP2;ratioP2;P2;SDS_P1;SDS_P2;PMS_P1;PMS_P2;Temp;Humidity;BMP_temperature;BMP_pressure;BME280_temperature;BME280_humidity;BME280_pressure;Samples;Min_cycle;Max_cycle;Signal;HPM_P1;HPM_P2
2021/03/07 00:00:10;;;;;;;11.20;5.63;;;3.80;96.50;;;;;;5002086;28;20423;-81
2021/03/07 00:02:36;;;;;;;7.27;5.57;;;3.70;96.70;;;;;;5002912;28;20170;-80
2021/03/07 00:05:02;;;;;;;7.87;5.30;;;3.70;96.80;;;;;;5002446;28;20548;-80
2021/03/07 00:07:28;;;;;;;9.50;5.67;;;3.70;96.90;;;;;;5001987;28;20178;-80
2021/03/07 00:09:53;;;;;;;12.37;6.00;;;3.60;97.20;;;;;;5002062;28;20460;-80
2021/03/07 00:12:19;;;;;;;19.83;8.23;;;3.60;97.20;;;;;;5002890;28;20178;-81
2021/03/07 00:14:44;;;;;;;22.90;7.60;;;3.60;97.30;;;;;;5003637;28;20574;-80
2021/03/07 00:17:10;;;;;;;26.03;9.07;;;3.50;97.30;;;;;;5004236;28;20185;-80
2021/03/07 00:19:36;;;;;;;22.13;7.73;;;3.50;97.30;;;;;;5001880;28;20177;-80
2021/03/07 00:22:01;;;;;;;13.40;7.10;;;3.50;97.30;;;;;;5001955;28;20266;-80
2021/03/07 00:24:27;;;;;;;12.73;5.70;;;3.40;97.30;;;;;;5001765;28;20226;-80
2021/03/07 00:26:53;;;;;;;12.83;5.80;;;3.40;97.30;;;;;;5001760;28;20181;-80
2021/03/07 00:29:18;;;;;;;12.37;5.53;;;3.40;97.30;;;;;;5002077;28;20194;-80
2021/03/07 00:31:44;;;;;;;10.47;5.83;;;3.30;97.30;;;;;;5002717;28;20304;-80
2021/03/07 00:34:09;;;;;;;11.90;6.07;;;3.30;97.30;;;;;;5002001;28;20213;-80
2021/03/07 00:36:35;;;;;;;16.07;6.67;;;3.20;97.30;;;;;;5002733;28;20204;-80
2021/03/07 00:39:01;;;;;;;9.80;5.90;;;3.10;97.30;;;;;;5001357;28;20177;-80
2021/03/07 00:41:26;;;;;;;9.30;5.50;;;3.10;97.30;;;;;;5002963;28;20240;-80
2021/03/07 00:43:52;;;;;;;10.37;6.37;;;3.00;97.30;;;;;;5002984;28;20209;-80
2021/03/07 00:46:17;;;;;;;16.20;6.50;;;3.00;97.30;;;;;;5009423;28;20182;-81
2021/03/07 00:48:43;;;;;;;13.03;8.17;;;3.00;97.30;;;;;;5010966;28;20181;-81
2021/03/07 00:51:08;;;;;;;11.90;6.97;;;3.00;97.30;;;;;;5011870;28;20189;-82
2021/03/07 00:53:34;;;;;;;10.13;7.07;;;3.00;97.30;;;;;;5006890;28;20229;-81
2021/03/07 00:56:07;;;;;;;10.13;5.90;;;3.00;97.30;;;;;;4999920;28;20174;-81
2021/03/07 00:58:35;;;;;;;14.47;7.23;;;3.00;97.30;;;;;;5000551;28;20177;-80
2021/03/07 01:01:01;;;;;;;11.20;6.83;;;3.00;97.30;;;;;;5001554;28;20441;-80
2021/03/07 01:03:26;;;;;;;9.27;6.07;;;3.00;97.30;;;;;;5001818;28;20421;-81
2021/03/07 01:05:52;;;;;;;10.10;6.40;;;3.00;97.30;;;;;;5002050;28;20253;-80
2021/03/07 01:08:18;;;;;;;9.53;6.40;;;3.00;97.30;;;;;;5002088;28;20240;-81
2021/03/07 01:10:44;;;;;;;10.00;7.37;;;3.00;97.30;;;;;;5002543;28;20186;-80
2021/03/07 01:13:13;;;;;;;13.37;7.13;;;3.00;97.30;;;;;;5017516;28;20209;-82
2021/03/07 01:15:39;;;;;;;13.70;6.63;;;3.00;97.30;;;;;;5021777;28;20458;-80
2021/03/07 01:18:05;;;;;;;9.57;6.30;;;3.00;97.30;;;;;;5023334;28;20444;-80
2021/03/07 01:20:31;;;;;;;10.77;6.90;;;3.00;97.30;;;;;;5023122;28;20412;-81
2021/03/07 01:22:57;;;;;;;12.50;7.50;;;3.00;97.30;;;;;;5023315;28;20412;-80
2021/03/07 01:25:31;;;;;;;19.03;7.73;;;3.00;97.30;;;;;;5023478;28;20464;-81
2021/03/07 01:27:57;;;;;;;16.90;7.13;;;2.90;97.30;;;;;;5023401;28;20187;-81
2021/03/07 01:30:24;;;;;;;10.30;6.60;;;2.90;97.30;;;;;;5022373;28;20420;-80
2021/03/07 01:32:50;;;;;;;12.90;6.27;;;2.90;97.30;;;;;;5021824;28;20439;-81
2021/03/07 01:35:17;;;;;;;12.77;6.00;;;2.90;97.30;;;;;;5022291;28;20471;-79
2021/03/07 01:37:43;;;;;;;13.33;6.30;;;2.90;97.30;;;;;;5023248;28;20715;-80
2021/03/07 01:40:12;;;;;;;9.77;6.13;;;2.90;97.30;;;;;;5021771;28;20471;-78
2021/03/07 01:42:42;;;;;;;9.80;6.10;;;2.90;97.30;;;;;;5021916;28;20173;-80
2021/03/07 01:45:08;;;;;;;10.57;5.03;;;2.90;97.30;;;;;;5020154;28;20447;-80
2021/03/07 01:47:34;;;;;;;12.77;6.00;;;2.90;97.30;;;;;;5020502;28;20419;-80
2021/03/07 01:50:01;;;;;;;11.00;5.93;;;2.80;97.30;;;;;;5021718;28;20420;-80
2021/03/07 01:52:27;;;;;;;10.27;5.70;;;2.80;97.30;;;;;;5021168;28;20443;-80
2021/03/07 01:54:52;;;;;;;10.63;6.20;;;2.80;97.30;;;;;;5020018;28;20566;-80
2021/03/07 01:57:23;;;;;;;13.70;5.97;;;2.80;97.30;;;;;;5020786;28;20489;-80
2021/03/07 01:59:50;;;;;;;10.60;6.67;;;2.80;97.30;;;;;;5021815;28;20158;-80
2021/03/07 02:02:16;;;;;;;10.57;5.70;;;2.80;97.30;;;;;;5019895;28;20448;-82
2021/03/07 02:04:41;;;;;;;10.10;5.50;;;2.80;97.30;;;;;;5019203;28;20471;-81
2021/03/07 02:07:08;;;;;;;8.33;5.83;;;2.80;97.30;;;;;;5019058;28;20185;-81
2021/03/07 02:09:33;;;;;;;8.17;5.57;;;2.70;97.30;;;;;;5020248;28;20670;-80
2021/03/07 02:12:00;;;;;;;10.30;6.00;;;2.70;97.30;;;;;;5020648;28;20419;-80
2021/03/07 02:14:30;;;;;;;7.43;5.47;;;2.70;97.30;;;;;;5019766;28;20221;-81
2021/03/07 02:16:57;;;;;;;10.40;6.47;;;2.70;97.30;;;;;;5019907;28;20467;-80
2021/03/07 02:19:29;;;;;;;8.60;6.57;;;2.70;97.30;;;;;;5019649;28;20408;-80
2021/03/07 02:21:58;;;;;;;17.43;7.30;;;2.60;97.30;;;;;;5022542;28;20450;-80
2021/03/07 02:24:23;;;;;;;8.13;5.50;;;2.50;97.30;;;;;;5020430;28;20568;-80
2021/03/07 02:26:51;;;;;;;9.17;5.73;;;2.50;97.30;;;;;;5019794;28;20483;-80
2021/03/07 02:29:20;;;;;;;10.00;7.20;;;2.50;97.30;;;;;;5019142;28;20177;-79
2021/03/07 02:31:50;;;;;;;10.30;6.10;;;2.50;97.30;;;;;;5020645;28;21009;-79
2021/03/07 02:34:27;;;;;;;9.87;5.80;;;2.50;97.30;;;;;;5020787;28;20464;-80
2021/03/07 02:36:58;;;;;;;10.27;6.13;;;2.40;97.30;;;;;;5021445;28;20423;-80
2021/03/07 02:39:27;;;;;;;11.40;5.87;;;2.40;97.30;;;;;;5020717;28;20845;-80
2021/03/07 02:41:59;;;;;;;8.20;5.80;;;2.40;97.30;;;;;;5020127;28;20456;-80
2021/03/07 02:44:29;;;;;;;11.07;5.20;;;2.40;97.30;;;;;;5018929;28;20448;-80
2021/03/07 02:46:56;;;;;;;13.13;6.70;;;2.40;97.30;;;;;;5019895;28;20495;-80
2021/03/07 02:49:23;;;;;;;14.87;6.37;;;2.40;97.30;;;;;;5019985;28;20443;-79
2021/03/07 02:51:50;;;;;;;7.20;5.30;;;2.30;97.30;;;;;;5020142;28;20434;-80
2021/03/07 02:54:19;;;;;;;9.83;6.50;;;2.30;97.30;;;;;;5019547;28;20532;-80
2021/03/07 02:56:49;;;;;;;8.30;5.30;;;2.30;97.30;;;;;;5019933;28;20945;-80
2021/03/07 02:59:16;;;;;;;10.83;6.87;;;2.30;97.30;;;;;;5019612;28;20415;-80
2021/03/07 03:01:42;;;;;;;11.80;5.63;;;2.30;97.30;;;;;;5017881;28;20431;-81
2021/03/07 03:04:09;;;;;;;7.03;5.30;;;2.30;97.30;;;;;;5019785;28;20461;-80
2021/03/07 03:06:41;;;;;;;9.83;5.87;;;2.30;97.30;;;;;;5003137;28;20446;-80
2021/03/07 03:09:07;;;;;;;8.87;6.10;;;2.30;97.30;;;;;;5002622;28;20424;-80
2021/03/07 03:11:39;;;;;;;11.93;6.43;;;2.30;97.30;;;;;;5002608;28;20424;-79
2021/03/07 03:14:07;;;;;;;8.10;5.30;;;2.30;97.30;;;;;;5002989;28;20482;-80
2021/03/07 03:16:34;;;;;;;9.00;5.53;;;2.30;97.30;;;;;;5022021;28;20408;-80
2021/03/07 03:19:04;;;;;;;11.90;5.43;;;2.20;97.30;;;;;;5003876;28;20408;-80
2021/03/07 03:21:30;;;;;;;10.40;5.70;;;2.20;97.30;;;;;;5021165;28;20400;-80
2021/03/07 03:23:56;;;;;;;10.83;5.50;;;2.20;97.30;;;;;;5003311;28;20471;-80
2021/03/07 03:26:24;;;;;;;10.07;5.67;;;2.20;97.30;;;;;;5003537;28;20420;-80
2021/03/07 03:28:51;;;;;;;10.83;5.57;;;2.20;97.30;;;;;;5021600;28;20906;-80
2021/03/07 03:31:18;;;;;;;6.83;4.70;;;2.20;97.30;;;;;;5002595;28;20427;-80
2021/03/07 03:33:43;;;;;;;9.40;5.33;;;2.20;97.30;;;;;;5002453;28;20459;-80
2021/03/07 03:36:09;;;;;;;9.23;5.80;;;2.10;97.30;;;;;;5003342;28;20480;-80
2021/03/07 03:38:41;;;;;;;9.63;5.93;;;2.10;97.30;;;;;;5002316;28;20609;-80
2021/03/07 03:41:11;;;;;;;9.00;6.03;;;2.10;97.30;;;;;;5002107;28;20195;-80
2021/03/07 03:43:38;;;;;;;8.43;5.33;;;2.10;97.30;;;;;;5003510;28;20491;-80
2021/03/07 03:46:06;;;;;;;8.63;6.07;;;2.10;97.30;;;;;;5000081;28;20420;-80
2021/03/07 03:48:39;;;;;;;9.83;6.00;;;2.00;97.30;;;;;;4982490;28;20445;-80
2021/03/07 03:51:10;;;;;;;8.80;6.30;;;2.00;97.30;;;;;;4983116;28;21028;-80
2021/03/07 03:53:41;;;;;;;7.30;5.40;;;1.90;97.30;;;;;;4982704;28;20468;-80
2021/03/07 03:56:08;;;;;;;8.93;5.80;;;1.90;97.30;;;;;;4981191;28;20417;-80
2021/03/07 03:58:39;;;;;;;13.93;6.23;;;1.80;97.30;;;;;;4983256;28;21015;-80
2021/03/07 04:01:06;;;;;;;8.87;5.83;;;1.80;97.30;;;;;;4980789;28;20433;-80
2021/03/07 04:03:33;;;;;;;12.50;6.07;;;1.80;97.30;;;;;;4981211;28;20432;-80
2021/03/07 04:05:59;;;;;;;7.80;5.90;;;1.80;97.30;;;;;;4965167;28;21030;-80
2021/03/07 04:08:25;;;;;;;8.57;5.67;;;1.80;97.30;;;;;;4962746;28;20422;-80
2021/03/07 04:10:52;;;;;;;9.23;6.10;;;1.70;97.30;;;;;;4962373;28;20189;-80
2021/03/07 04:13:24;;;;;;;10.17;5.77;;;1.70;97.30;;;;;;4963726;28;20422;-80
2021/03/07 04:15:51;;;;;;;13.70;6.40;;;1.70;97.30;;;;;;4964398;28;20828;-79
2021/03/07 04:18:20;;;;;;;19.13;5.83;;;1.70;97.30;;;;;;4966174;28;20422;-80
2021/03/07 04:20:46;;;;;;;11.80;5.93;;;1.60;97.30;;;;;;4966270;28;20414;-80
2021/03/07 04:23:15;;;;;;;12.80;6.03;;;1.60;97.30;;;;;;4965044;28;20418;-80
2021/03/07 04:25:41;;;;;;;8.20;5.30;;;1.60;97.30;;;;;;4966772;28;20540;-80
2021/03/07 04:28:07;;;;;;;8.53;6.00;;;1.60;97.30;;;;;;4968029;28;20414;-80
2021/03/07 04:30:34;;;;;;;10.30;5.60;;;1.60;97.30;;;;;;4965857;28;20493;-80
2021/03/07 04:33:01;;;;;;;8.40;5.40;;;1.50;97.30;;;;;;4966314;28;20422;-80
2021/03/07 04:35:28;;;;;;;8.90;5.40;;;1.50;97.30;;;;;;4965608;28;20496;-80
2021/03/07 04:38:05;;;;;;;11.70;6.20;;;1.50;97.30;;;;;;4965739;28;20472;-79
2021/03/07 04:40:33;;;;;;;10.20;5.67;;;1.50;97.30;;;;;;4966819;28;20430;-80
2021/03/07 04:43:00;;;;;;;10.00;6.50;;;1.40;97.30;;;;;;4965025;28;20450;-80
2021/03/07 04:45:26;;;;;;;10.60;6.00;;;1.40;97.30;;;;;;4966578;28;20448;-80
2021/03/07 04:47:51;;;;;;;9.00;5.63;;;1.40;97.30;;;;;;4979352;28;20479;-80
2021/03/07 04:50:17;;;;;;;12.47;6.37;;;1.30;97.30;;;;;;4986462;28;20516;-80
2021/03/07 04:52:44;;;;;;;9.77;5.90;;;1.30;97.30;;;;;;4986425;28;20221;-80
2021/03/07 04:55:10;;;;;;;6.90;4.90;;;1.30;97.30;;;;;;4985900;28;20476;-80
2021/03/07 04:57:36;;;;;;;16.33;6.17;;;1.30;97.30;;;;;;4984779;28;20417;-80
2021/03/07 05:00:06;;;;;;;9.20;5.67;;;1.30;97.30;;;;;;4983511;28;20432;-80
2021/03/07 05:02:31;;;;;;;12.27;5.93;;;1.30;97.30;;;;;;4983825;28;20206;-80
2021/03/07 05:04:57;;;;;;;15.40;5.93;;;1.30;97.30;;;;;;4996151;28;20468;-80
2021/03/07 05:07:23;;;;;;;9.47;5.67;;;1.30;97.30;;;;;;5018721;28;20303;-80
2021/03/07 05:09:48;;;;;;;11.10;5.87;;;1.30;97.30;;;;;;5017626;28;20236;-81
2021/03/07 05:12:14;;;;;;;9.53;5.70;;;1.30;97.30;;;;;;5020235;28;20564;-80
2021/03/07 05:14:39;;;;;;;9.27;5.97;;;1.20;97.30;;;;;;5019351;28;20233;-80
2021/03/07 05:17:05;;;;;;;8.90;5.77;;;1.20;97.30;;;;;;5020432;28;20177;-80
2021/03/07 05:19:30;;;;;;;8.70;5.90;;;1.20;97.30;;;;;;5020292;28;20617;-80
2021/03/07 05:21:56;;;;;;;9.37;6.00;;;1.20;97.30;;;;;;5021327;28;20185;-80
2021/03/07 05:24:22;;;;;;;12.50;6.60;;;1.20;97.30;;;;;;5020752;28;20623;-80
2021/03/07 05:26:47;;;;;;;13.30;6.50;;;1.20;97.30;;;;;;5020595;28;20185;-80
2021/03/07 05:29:13;;;;;;;9.47;5.80;;;1.20;97.30;;;;;;5024888;28;20180;-82
2021/03/07 05:31:39;;;;;;;8.60;6.03;;;1.20;97.30;;;;;;5027543;28;20189;-81
2021/03/07 05:34:05;;;;;;;10.03;6.10;;;1.30;97.30;;;;;;5028615;28;20286;-81
2021/03/07 05:36:30;;;;;;;9.90;6.77;;;1.30;97.30;;;;;;5018297;28;20428;-80
2021/03/07 05:38:56;;;;;;;11.40;6.70;;;1.20;97.30;;;;;;5016136;28;20180;-80
2021/03/07 05:41:22;;;;;;;12.63;7.17;;;1.20;97.30;;;;;;5016479;28;20200;-80
2021/03/07 05:43:48;;;;;;;10.93;6.13;;;1.20;97.30;;;;;;5017576;28;20213;-81
2021/03/07 05:46:15;;;;;;;13.03;6.80;;;1.20;97.30;;;;;;5018372;28;20169;-80
2021/03/07 05:48:41;;;;;;;10.47;7.20;;;1.20;97.30;;;;;;5018511;28;20426;-80
2021/03/07 05:51:12;;;;;;;14.53;7.67;;;1.20;97.30;;;;;;5021543;28;20425;-80
2021/03/07 05:53:39;;;;;;;16.17;8.30;;;1.20;97.30;;;;;;5020219;28;20464;-81
2021/03/07 05:56:06;;;;;;;17.83;7.87;;;1.20;97.30;;;;;;5020498;28;20415;-80
2021/03/07 05:58:32;;;;;;;14.63;7.60;;;1.20;97.30;;;;;;5020696;28;20420;-80
2021/03/07 06:01:00;;;;;;;14.70;7.03;;;1.20;97.30;;;;;;5015924;28;20408;-79
2021/03/07 06:03:26;;;;;;;16.33;7.00;;;1.10;97.30;;;;;;5017761;28;20919;-81
2021/03/07 06:05:52;;;;;;;16.73;6.93;;;1.10;97.30;;;;;;5018698;28;20523;-80
2021/03/07 06:08:19;;;;;;;13.93;7.80;;;1.10;97.30;;;;;;5018962;28;20222;-81
2021/03/07 06:10:45;;;;;;;11.93;6.70;;;1.10;97.30;;;;;;5019731;28;20200;-80
2021/03/07 06:13:11;;;;;;;9.73;6.90;;;1.10;97.30;;;;;;5017835;28;20432;-80
2021/03/07 06:15:44;;;;;;;14.10;6.73;;;1.10;97.30;;;;;;5019888;28;21018;-80
2021/03/07 06:18:18;;;;;;;15.53;7.90;;;1.10;97.30;;;;;;5020154;28;20172;-80
2021/03/07 06:20:50;;;;;;;10.97;7.17;;;1.10;97.30;;;;;;5018530;28;20419;-80
2021/03/07 06:23:17;;;;;;;17.10;7.50;;;1.10;97.30;;;;;;5019384;28;20419;-80
2021/03/07 06:25:51;;;;;;;15.73;7.43;;;1.20;97.30;;;;;;5020017;28;20436;-80
2021/03/07 06:28:24;;;;;;;16.67;8.23;;;1.20;97.30;;;;;;5019891;28;20408;-80
2021/03/07 06:30:52;;;;;;;16.73;8.17;;;1.20;97.30;;;;;;5018513;28;20446;-80
2021/03/07 06:33:33;;;;;;;10.27;6.93;;;1.20;97.30;;;;;;5019604;28;20416;-80
2021/03/07 06:36:14;;;;;;;14.47;7.93;;;1.20;97.30;;;;;;5018563;28;20428;-81
2021/03/07 06:39:10;;;;;;;13.23;7.00;;;1.20;97.30;;;;;;5018766;28;20988;-80
2021/03/07 06:41:36;;;;;;;13.47;7.60;;;1.30;97.30;;;;;;5015530;28;20989;-80
2021/03/07 06:44:17;;;;;;;16.90;8.47;;;1.30;97.30;;;;;;5018441;28;20436;-79
2021/03/07 06:46:45;;;;;;;14.67;7.80;;;1.40;97.30;;;;;;5012291;28;20165;-81
2021/03/07 06:49:25;;;;;;;16.47;6.90;;;1.40;97.30;;;;;;4998374;28;20418;-80
2021/03/07 06:51:51;;;;;;;13.33;7.67;;;1.40;97.30;;;;;;4997944;28;20420;-80
2021/03/07 06:54:20;;;;;;;12.70;7.20;;;1.40;97.30;;;;;;4998686;28;20858;-80
2021/03/07 06:56:50;;;;;;;13.83;7.87;;;1.40;97.30;;;;;;5005069;28;20427;-81
2021/03/07 06:59:16;;;;;;;17.67;8.00;;;1.40;97.30;;;;;;5008949;28;20444;-80
2021/03/07 07:01:46;;;;;;;13.70;8.07;;;1.40;97.30;;;;;;5005344;28;20631;-82
2021/03/07 07:04:13;;;;;;;14.50;7.43;;;1.40;97.30;;;;;;5007685;28;20459;-82
2021/03/07 07:06:39;;;;;;;14.83;8.00;;;1.40;97.30;;;;;;4978017;28;20437;-82
2021/03/07 07:09:10;;;;;;;17.07;8.00;;;1.40;97.30;;;;;;4983529;28;20427;-81
2021/03/07 07:11:47;;;;;;;17.57;8.80;;;1.40;97.30;;;;;;4981105;28;20428;-81
2021/03/07 07:14:28;;;;;;;12.23;6.90;;;1.40;97.30;;;;;;4977178;28;20465;-80
2021/03/07 07:16:54;;;;;;;13.77;7.07;;;1.50;97.30;;;;;;4974378;28;20791;-80
2021/03/07 07:19:20;;;;;;;14.83;6.80;;;1.50;97.30;;;;;;4979413;28;20413;-80
2021/03/07 07:21:47;;;;;;;14.57;7.40;;;1.50;97.30;;;;;;4980027;28;20432;-78
2021/03/07 07:24:15;;;;;;;14.80;7.53;;;1.60;97.30;;;;;;4980241;28;20457;-79
2021/03/07 07:26:45;;;;;;;11.57;7.33;;;1.60;97.30;;;;;;4979799;28;20471;-80
2021/03/07 07:29:12;;;;;;;13.83;7.60;;;1.70;97.30;;;;;;4975613;28;20425;-79
2021/03/07 07:31:44;;;;;;;17.17;7.93;;;1.80;97.30;;;;;;4975643;28;20436;-80
2021/03/07 07:34:22;;;;;;;13.50;7.40;;;1.90;97.30;;;;;;4984573;28;20869;-80
2021/03/07 07:36:52;;;;;;;12.97;7.33;;;1.90;97.30;;;;;;4978036;28;20440;-82
2021/03/07 07:39:29;;;;;;;14.67;7.57;;;1.90;97.30;;;;;;4979334;28;20432;-80
2021/03/07 07:41:55;;;;;;;10.90;7.33;;;1.90;97.30;;;;;;4980846;28;20432;-79
2021/03/07 07:44:32;;;;;;;10.53;7.00;;;1.90;97.30;;;;;;4991993;28;20438;-80
2021/03/07 07:47:03;;;;;;;11.40;7.00;;;1.90;97.30;;;;;;4977515;28;20202;-80
2021/03/07 07:49:44;;;;;;;12.40;8.03;;;2.00;97.30;;;;;;4977176;28;20424;-79
2021/03/07 07:52:24;;;;;;;12.03;6.93;;;2.00;97.30;;;;;;4978944;28;20419;-80
2021/03/07 07:54:57;;;;;;;12.13;8.23;;;2.00;97.30;;;;;;4980951;28;20472;-82
2021/03/07 07:57:33;;;;;;;17.87;8.93;;;2.00;97.30;;;;;;4981176;28;20415;-82
2021/03/07 08:00:00;;;;;;;15.43;8.90;;;2.00;97.30;;;;;;4983963;28;21029;-80
2021/03/07 08:02:47;;;;;;;15.60;8.10;;;2.00;97.30;;;;;;4984691;28;20409;-81
2021/03/07 08:05:24;;;;;;;16.03;7.83;;;2.20;97.30;;;;;;4981168;28;20479;-79
2021/03/07 08:08:03;;;;;;;9.87;6.73;;;2.10;97.30;;;;;;4982800;28;20788;-79
2021/03/07 08:10:42;;;;;;;11.50;7.00;;;2.10;97.30;;;;;;4972371;28;20428;-80
2021/03/07 08:13:26;;;;;;;11.70;6.93;;;2.20;97.30;;;;;;4981273;28;20447;-80
2021/03/07 08:15:53;;;;;;;13.93;7.00;;;2.20;97.30;;;;;;4996820;28;20444;-79
2021/03/07 08:18:23;;;;;;;9.80;6.97;;;2.30;97.30;;;;;;5001468;28;20450;-80
2021/03/07 08:20:51;;;;;;;12.17;7.47;;;2.40;97.30;;;;;;4980985;28;20819;-80
2021/03/07 08:23:21;;;;;;;12.10;7.53;;;2.50;97.30;;;;;;4984110;28;20440;-79
2021/03/07 08:25:49;;;;;;;12.30;7.17;;;2.60;97.30;;;;;;4995842;28;20447;-81
2021/03/07 08:28:31;;;;;;;11.60;7.33;;;2.60;97.30;;;;;;4988202;28;20772;-79
2021/03/07 08:31:05;;;;;;;10.73;7.37;;;2.60;97.30;;;;;;4985221;28;20417;-80
2021/03/07 08:33:36;;;;;;;12.43;7.67;;;2.60;97.30;;;;;;4995772;28;20411;-79
2021/03/07 08:36:25;;;;;;;11.17;7.00;;;2.60;97.30;;;;;;4989576;28;20421;-80
2021/03/07 08:38:53;;;;;;;13.60;7.43;;;2.60;97.30;;;;;;4986650;28;20437;-80
2021/03/07 08:41:43;;;;;;;12.90;7.40;;;2.50;97.30;;;;;;4989460;28;21106;-82
2021/03/07 08:44:14;;;;;;;13.83;6.73;;;2.50;97.30;;;;;;4983883;28;20801;-81
2021/03/07 08:46:40;;;;;;;9.80;6.77;;;2.60;97.30;;;;;;4987207;28;20421;-81
2021/03/07 08:49:21;;;;;;;11.30;7.50;;;2.60;97.30;;;;;;4986580;28;20696;-81
2021/03/07 08:51:49;;;;;;;12.67;7.03;;;2.60;97.30;;;;;;4998559;28;20452;-81
2021/03/07 08:54:20;;;;;;;12.67;7.50;;;2.60;97.30;;;;;;4984504;28;20465;-79
2021/03/07 08:56:47;;;;;;;11.43;6.90;;;2.70;97.30;;;;;;4990657;28;20490;-79
2021/03/07 08:59:14;;;;;;;14.30;7.53;;;2.90;97.30;;;;;;4981615;28;20904;-79
2021/03/07 09:01:40;;;;;;;12.40;6.90;;;3.00;97.30;;;;;;4990972;28;20834;-81
2021/03/07 09:04:07;;;;;;;13.30;7.60;;;3.00;97.30;;;;;;4997785;28;20437;-80
2021/03/07 09:06:38;;;;;;;10.30;7.00;;;3.00;97.30;;;;;;4999721;28;20418;-81
2021/03/07 09:09:18;;;;;;;16.43;9.40;;;3.00;97.30;;;;;;5018989;28;20409;-81
2021/03/07 09:12:02;;;;;;;14.53;8.67;;;3.10;97.30;;;;;;4999308;28;20404;-81
2021/03/07 09:14:33;;;;;;;12.20;8.33;;;3.10;97.30;;;;;;5015270;28;20890;-80
2021/03/07 09:17:02;;;;;;;15.03;8.33;;;3.20;97.30;;;;;;4997851;28;20881;-81
2021/03/07 09:19:34;;;;;;;14.30;8.10;;;3.30;97.30;;;;;;5005773;28;20427;-81
2021/03/07 09:22:26;;;;;;;13.30;8.23;;;3.40;97.30;;;;;;5009729;28;20456;-80
2021/03/07 09:24:59;;;;;;;14.50;8.43;;;3.40;97.30;;;;;;5003435;28;20444;-81
2021/03/07 09:27:31;;;;;;;14.90;8.23;;;3.40;97.30;;;;;;4996942;28;20440;-80
2021/03/07 09:30:04;;;;;;;15.60;8.87;;;3.50;97.30;;;;;;5006018;28;20507;-81
2021/03/07 09:32:35;;;;;;;15.23;7.23;;;3.50;97.30;;;;;;5001180;28;20417;-81
2021/03/07 09:35:36;;;;;;;10.97;7.50;;;3.50;97.30;;;;;;4992550;28;20464;-80
2021/03/07 09:38:05;;;;;;;13.00;7.50;;;3.60;97.30;;;;;;5015851;28;20438;-81
2021/03/07 09:40:37;;;;;;;13.93;8.90;;;3.70;97.30;;;;;;4994989;28;20435;-81
2021/03/07 09:43:23;;;;;;;14.67;7.90;;;3.70;97.30;;;;;;4998877;28;20417;-81
2021/03/07 09:45:50;;;;;;;12.40;7.40;;;3.70;97.30;;;;;;4996451;28;20587;-81
2021/03/07 09:48:20;;;;;;;13.53;8.07;;;3.70;97.30;;;;;;4997905;28;20425;-82
2021/03/07 09:50:46;;;;;;;17.87;9.40;;;3.70;97.30;;;;;;5012481;28;20456;-80
2021/03/07 09:53:13;;;;;;;15.27;7.77;;;3.80;97.30;;;;;;4990229;28;20424;-80
2021/03/07 09:55:40;;;;;;;17.97;9.07;;;3.90;97.30;;;;;;4992803;28;20197;-80
2021/03/07 09:58:07;;;;;;;18.77;9.23;;;3.80;97.30;;;;;;4990234;28;20519;-80
2021/03/07 10:00:35;;;;;;;19.00;9.00;;;3.90;97.30;;;;;;5000955;28;20426;-82
2021/03/07 10:03:04;;;;;;;14.20;8.27;;;4.00;97.30;;;;;;5011062;28;20507;-83
2021/03/07 10:05:29;;;;;;;16.97;10.87;;;4.00;97.30;;;;;;5010845;28;20472;-82
2021/03/07 10:07:55;;;;;;;17.13;8.83;;;4.00;97.30;;;;;;4997693;28;20416;-81
2021/03/07 10:10:25;;;;;;;20.27;9.23;;;4.10;97.30;;;;;;4996090;28;20187;-79
2021/03/07 10:12:57;;;;;;;17.47;9.43;;;4.20;97.30;;;;;;4989466;28;20495;-79
2021/03/07 10:15:38;;;;;;;20.23;9.80;;;4.10;97.30;;;;;;4992389;28;20471;-79
2021/03/07 10:18:17;;;;;;;19.33;9.30;;;4.10;97.30;;;;;;4989282;28;20421;-80
2021/03/07 10:20:48;;;;;;;19.47;8.90;;;4.00;97.30;;;;;;4988427;28;20436;-80
2021/03/07 10:23:14;;;;;;;17.33;9.90;;;4.10;97.30;;;;;;4989367;28;20473;-81
2021/03/07 10:25:42;;;;;;;15.17;7.80;;;4.10;97.30;;;;;;4981883;28;20449;-79
2021/03/07 10:28:21;;;;;;;17.13;7.87;;;4.10;97.30;;;;;;4981650;28;20979;-80
2021/03/07 10:30:47;;;;;;;19.20;8.50;;;4.10;97.30;;;;;;4995383;28;20420;-80
2021/03/07 10:33:23;;;;;;;14.47;8.43;;;4.10;97.30;;;;;;4997469;28;20511;-81
2021/03/07 10:36:12;;;;;;;14.00;8.40;;;4.10;96.90;;;;;;4991557;28;20479;-79
2021/03/07 10:39:05;;;;;;;13.63;7.70;;;4.10;96.40;;;;;;4995002;28;20431;-80
2021/03/07 10:41:31;;;;;;;17.53;8.07;;;4.10;96.80;;;;;;4979253;28;20456;-80
2021/03/07 10:44:05;;;;;;;11.80;7.23;;;4.20;97.30;;;;;;4982398;28;20452;-80
2021/03/07 10:46:40;;;;;;;15.53;7.87;;;4.40;97.30;;;;;;4985896;28;20427;-79
2021/03/07 10:49:07;;;;;;;14.90;8.20;;;4.50;97.20;;;;;;4998207;28;20441;-79
2021/03/07 10:51:37;;;;;;;15.73;8.60;;;4.60;97.30;;;;;;4980285;28;20421;-81
2021/03/07 10:54:03;;;;;;;12.73;8.67;;;4.60;97.20;;;;;;4980105;28;20469;-80
2021/03/07 10:56:32;;;;;;;15.23;8.63;;;4.60;96.50;;;;;;4993779;28;20424;-80
2021/03/07 10:58:58;;;;;;;17.73;8.80;;;4.50;96.80;;;;;;4993430;28;20425;-80
2021/03/07 11:01:24;;;;;;;13.30;7.93;;;4.60;97.20;;;;;;4992750;28;20878;-80
2021/03/07 11:03:49;;;;;;;13.07;8.20;;;4.60;96.60;;;;;;4995612;28;20203;-82
2021/03/07 11:06:15;;;;;;;13.13;8.20;;;4.60;96.60;;;;;;5005937;28;20716;-80
2021/03/07 11:08:41;;;;;;;15.00;9.30;;;4.60;96.10;;;;;;5006368;28;20177;-80
2021/03/07 11:11:07;;;;;;;12.37;7.20;;;4.80;96.40;;;;;;4996943;28;20421;-80
2021/03/07 11:13:34;;;;;;;10.90;7.47;;;5.10;95.90;;;;;;5008274;28;20428;-77
2021/03/07 11:16:00;;;;;;;13.03;8.60;;;5.10;94.30;;;;;;4999100;28;20410;-80
2021/03/07 11:18:26;;;;;;;13.90;8.20;;;5.30;93.90;;;;;;5000624;28;20433;-80
2021/03/07 11:20:52;;;;;;;10.80;6.63;;;5.40;93.50;;;;;;5000251;28;20405;-79
2021/03/07 11:23:20;;;;;;;10.90;7.17;;;5.50;93.10;;;;;;5021356;28;20176;-80
2021/03/07 11:25:45;;;;;;;11.23;7.37;;;5.60;92.20;;;;;;5016305;28;20209;-78
2021/03/07 11:28:11;;;;;;;9.60;6.77;;;5.90;91.30;;;;;;5002972;28;20428;-80
2021/03/07 11:30:37;;;;;;;9.67;6.70;;;5.90;89.50;;;;;;5002248;28;20247;-80
2021/03/07 11:33:03;;;;;;;9.60;6.93;;;5.60;88.70;;;;;;5004992;28;20658;-80
2021/03/07 11:35:28;;;;;;;8.87;6.57;;;5.60;88.70;;;;;;5018762;28;20271;-81
2021/03/07 11:37:56;;;;;;;8.13;6.30;;;5.60;89.50;;;;;;5021592;28;20413;-81
2021/03/07 11:40:21;;;;;;;17.07;7.80;;;5.80;88.00;;;;;;5019925;28;20180;-80
2021/03/07 11:42:47;;;;;;;8.03;6.20;;;5.70;87.40;;;;;;5017490;28;20412;-79
2021/03/07 11:45:13;;;;;;;8.30;5.90;;;5.60;85.60;;;;;;4998544;28;20228;-79
2021/03/07 11:47:38;;;;;;;10.47;6.43;;;5.40;86.10;;;;;;5014788;28;20555;-79
2021/03/07 11:50:05;;;;;;;8.33;6.10;;;5.50;86.10;;;;;;5021245;28;20196;-81
2021/03/07 11:52:31;;;;;;;6.80;5.53;;;5.40;85.90;;;;;;5021940;28;20181;-80
2021/03/07 11:54:57;;;;;;;8.80;5.97;;;5.50;86.40;;;;;;5020369;28;20482;-78
2021/03/07 11:57:23;;;;;;;7.63;5.87;;;5.70;86.60;;;;;;5011932;28;20181;-78
2021/03/07 11:59:49;;;;;;;9.00;6.40;;;5.80;86.40;;;;;;5016739;28;20438;-78
2021/03/07 12:02:15;;;;;;;9.90;6.10;;;5.90;86.80;;;;;;5016354;28;20177;-77
2021/03/07 12:04:40;;;;;;;16.33;6.77;;;6.20;87.00;;;;;;5017119;28;20805;-79
2021/03/07 12:07:06;;;;;;;10.57;6.60;;;6.40;86.70;;;;;;5016826;28;20462;-78
2021/03/07 12:09:32;;;;;;;6.80;5.70;;;6.50;86.10;;;;;;5016046;28;20723;-79
2021/03/07 12:11:58;;;;;;;7.80;5.60;;;6.50;86.40;;;;;;5020744;28;20188;-81
2021/03/07 12:14:24;;;;;;;11.70;5.50;;;6.50;86.20;;;;;;5023149;28;20267;-80
2021/03/07 12:16:50;;;;;;;7.03;5.80;;;6.60;85.50;;;;;;5017939;28;20412;-80
2021/03/07 12:19:17;;;;;;;9.90;6.23;;;6.30;86.60;;;;;;5017219;28;20436;-79
2021/03/07 12:21:42;;;;;;;10.80;6.77;;;5.90;87.30;;;;;;4997543;28;20186;-79
2021/03/07 12:24:08;;;;;;;8.93;5.30;;;5.70;88.00;;;;;;5022067;28;20952;-82
2021/03/07 12:26:35;;;;;;;7.10;5.13;;;5.70;88.10;;;;;;5021100;28;20227;-82
2021/03/07 12:29:00;;;;;;;9.13;6.33;;;5.80;87.10;;;;;;5019773;28;20780;-78
2021/03/07 12:31:26;;;;;;;9.37;5.47;;;6.10;86.70;;;;;;5011425;28;20420;-80
2021/03/07 12:33:52;;;;;;;6.50;5.43;;;6.30;86.00;;;;;;5019357;28;20224;-79
2021/03/07 12:36:18;;;;;;;6.63;5.03;;;6.30;85.20;;;;;;5020292;28;20521;-79
2021/03/07 12:38:44;;;;;;;6.60;5.30;;;6.30;85.50;;;;;;5019817;28;20181;-80
2021/03/07 12:41:09;;;;;;;7.80;5.50;;;6.70;86.40;;;;;;5020068;28;20184;-80
2021/03/07 12:43:35;;;;;;;7.97;5.70;;;7.00;84.40;;;;;;5020004;28;20194;-80
2021/03/07 12:46:01;;;;;;;6.97;5.40;;;6.80;84.60;;;;;;5011511;28;20172;-80
2021/03/07 12:48:29;;;;;;;8.20;5.57;;;6.50;85.00;;;;;;5025140;28;20180;-81
2021/03/07 12:50:55;;;;;;;7.23;5.60;;;6.40;84.90;;;;;;5012898;28;20592;-78
2021/03/07 12:53:23;;;;;;;5.47;4.70;;;6.40;84.00;;;;;;5016413;28;20938;-80
2021/03/07 12:55:48;;;;;;;5.80;4.33;;;6.80;85.10;;;;;;5017197;28;20197;-78
2021/03/07 12:58:15;;;;;;;5.90;4.00;;;7.30;84.90;;;;;;5012403;28;20427;-79